Time;durP1;ratioP1;P1;durP2;ratioP2;P2;SDS_P1;SDS_P2;PMS_P1;PMS_P2;Temp;Humidity;BMP_temperature;BMP_pressure;BME280_temperature;BME280_humidity;BME280_pressure;Samples;Min_cycle;Max_cycle;Signal;HPM_P1;HPM_P2
2022/11/05 00:09:28;;;;;;;5.87;5.30;;;10.70;99.90;;;;;;5036723;28;20466;-88
2022/11/05 00:17:23;;;;;;;10.20;6.50;;;10.80;99.90;;;;;;5052608;28;20630;-86
2022/11/05 00:19:51;;;;;;;6.57;5.00;;;10.70;99.90;;;;;;5051580;28;20465;-86
2022/11/05 00:25:15;;;;;;;6.43;5.37;;;10.80;99.90;;;;;;5067991;28;20466;-84
2022/11/05 00:27:43;;;;;;;7.43;4.70;;;10.80;99.90;;;;;;5074528;28;20431;-83
2022/11/05 00:30:12;;;;;;;6.13;5.00;;;10.80;99.90;;;;;;5073009;28;20456;-84
2022/11/05 00:32:39;;;;;;;6.03;4.90;;;10.80;99.90;;;;;;5060594;28;20437;-85
2022/11/05 00:35:08;;;;;;;6.43;5.03;;;10.80;99.90;;;;;;5053765;28;20948;-85
2022/11/05 00:37:35;;;;;;;5.23;4.17;;;10.80;99.90;;;;;;5049180;28;20476;-85
2022/11/05 00:40:03;;;;;;;5.90;4.73;;;10.80;99.90;;;;;;5050889;28;20888;-85
2022/11/05 00:45:14;;;;;;;6.00;4.53;;;10.90;99.90;;;;;;5047847;28;20475;-85
2022/11/05 00:50:28;;;;;;;6.67;4.77;;;11.00;99.90;;;;;;5051642;28;20471;-85
2022/11/05 00:52:56;;;;;;;5.93;4.60;;;11.00;99.90;;;;;;5055371;28;20440;-84
2022/11/05 00:55:24;;;;;;;5.90;4.10;;;11.00;99.90;;;;;;5053299;28;20927;-84
2022/11/05 00:57:50;;;;;;;4.27;3.50;;;11.00;99.90;;;;;;5053932;28;20448;-85
2022/11/05 01:00:17;;;;;;;6.40;3.33;;;11.00;99.90;;;;;;5057936;28;20461;-84
2022/11/05 01:02:44;;;;;;;6.13;3.43;;;11.00;99.90;;;;;;5074569;28;20429;-84
2022/11/05 01:05:11;;;;;;;3.57;3.27;;;11.00;99.90;;;;;;5062743;28;20808;-84
2022/11/05 01:07:39;;;;;;;4.60;3.83;;;11.00;99.90;;;;;;5054920;28;20960;-85
2022/11/05 01:10:07;;;;;;;3.20;2.77;;;11.00;99.90;;;;;;5055262;28;20456;-85
2022/11/05 01:12:34;;;;;;;4.70;3.00;;;11.00;99.90;;;;;;5054297;28;20441;-85
2022/11/05 01:15:00;;;;;;;3.30;3.00;;;11.00;99.90;;;;;;5055085;28;20440;-86
2022/11/05 01:17:27;;;;;;;3.27;2.97;;;10.90;99.90;;;;;;5046407;28;20492;-85
2022/11/05 01:19:54;;;;;;;3.83;3.33;;;10.90;99.90;;;;;;5054455;28;20543;-85
2022/11/05 01:22:21;;;;;;;4.57;3.37;;;10.90;99.90;;;;;;5053840;28;20821;-86
2022/11/05 01:24:49;;;;;;;5.10;3.30;;;10.90;99.90;;;;;;5048535;28;20436;-85
2022/11/05 01:27:18;;;;;;;3.70;2.87;;;10.90;99.90;;;;;;5053199;28;20440;-86
2022/11/05 01:29:45;;;;;;;4.23;3.03;;;10.90;99.90;;;;;;5074166;28;20464;-85
2022/11/05 01:32:14;;;;;;;4.00;3.27;;;10.90;99.90;;;;;;5077471;28;20443;-85
2022/11/05 01:34:41;;;;;;;3.47;3.17;;;10.90;99.90;;;;;;5068174;28;20532;-85
2022/11/05 01:37:07;;;;;;;4.30;3.17;;;10.90;99.90;;;;;;5047540;28;21019;-86
2022/11/05 01:39:34;;;;;;;4.90;3.10;;;10.90;99.90;;;;;;5052419;28;20466;-86
2022/11/05 01:42:02;;;;;;;4.90;3.50;;;10.90;99.90;;;;;;5053665;28;20437;-85
2022/11/05 01:44:52;;;;;;;4.77;3.17;;;10.90;99.90;;;;;;5056309;28;20451;-86
2022/11/05 01:47:29;;;;;;;3.27;2.83;;;10.90;99.90;;;;;;5052029;28;20448;-85
2022/11/05 01:50:00;;;;;;;3.10;2.60;;;10.90;99.90;;;;;;5056126;28;20833;-86
2022/11/05 01:52:28;;;;;;;5.60;3.27;;;10.90;99.90;;;;;;5053286;28;20461;-86
2022/11/05 01:54:56;;;;;;;3.33;2.83;;;10.90;99.90;;;;;;5053446;28;20456;-86
2022/11/05 01:57:24;;;;;;;3.00;2.53;;;10.90;99.90;;;;;;5051011;28;20472;-86
2022/11/05 01:59:54;;;;;;;2.50;2.30;;;10.90;99.90;;;;;;5053532;28;20839;-85
2022/11/05 02:02:22;;;;;;;3.80;2.60;;;10.90;99.90;;;;;;5047959;28;20469;-85
2022/11/05 02:04:54;;;;;;;2.80;2.30;;;10.90;99.90;;;;;;5053266;28;20468;-86
2022/11/05 02:07:22;;;;;;;3.23;2.40;;;10.90;99.90;;;;;;5048248;28;20448;-85
2022/11/05 02:09:55;;;;;;;2.93;2.70;;;10.90;99.90;;;;;;5060425;28;20441;-85
2022/11/05 02:12:24;;;;;;;2.90;2.60;;;10.90;99.90;;;;;;5074724;28;20439;-85
2022/11/05 02:14:53;;;;;;;3.80;2.70;;;11.00;99.90;;;;;;5053753;28;20452;-86
2022/11/05 02:17:30;;;;;;;2.57;2.37;;;10.90;99.90;;;;;;5048369;28;21170;-86
2022/11/05 02:20:09;;;;;;;4.67;2.67;;;10.90;99.90;;;;;;5049935;28;20491;-85
2022/11/05 02:23:18;;;;;;;4.50;2.40;;;10.90;99.90;;;;;;5053159;28;20448;-86
2022/11/05 02:26:03;;;;;;;4.67;2.30;;;11.00;99.90;;;;;;5039424;28;20490;-86
2022/11/05 02:29:03;;;;;;;2.27;2.07;;;11.00;99.90;;;;;;5050449;28;20441;-86
2022/11/05 02:31:36;;;;;;;3.53;2.37;;;11.00;99.90;;;;;;5051079;28;20445;-86
2022/11/05 02:34:10;;;;;;;3.57;2.17;;;11.00;99.90;;;;;;5049216;28;20437;-85
2022/11/05 02:36:46;;;;;;;5.23;2.57;;;11.00;99.90;;;;;;5053040;28;20480;-86
2022/11/05 02:39:26;;;;;;;3.37;2.70;;;11.00;99.90;;;;;;5052763;28;20452;-85
2022/11/05 02:42:01;;;;;;;2.57;2.37;;;11.00;99.90;;;;;;5053009;28;20464;-86
2022/11/05 02:44:38;;;;;;;2.53;1.90;;;11.00;99.90;;;;;;5053272;28;20870;-86
2022/11/05 02:47:15;;;;;;;5.00;2.17;;;11.00;99.90;;;;;;5049016;28;20425;-85
2022/11/05 02:49:51;;;;;;;3.20;1.80;;;11.00;99.90;;;;;;5053865;28;20487;-85
2022/11/05 02:52:24;;;;;;;2.00;1.80;;;11.00;99.90;;;;;;5055359;28;20532;-85
2022/11/05 02:54:57;;;;;;;2.40;2.20;;;11.00;99.90;;;;;;5055906;28;20835;-86
2022/11/05 02:57:24;;;;;;;3.73;2.33;;;11.00;99.90;;;;;;5055090;28;20842;-86
2022/11/05 03:00:00;;;;;;;2.63;2.30;;;11.00;99.90;;;;;;5071558;28;20471;-85
2022/11/05 03:02:28;;;;;;;3.10;2.37;;;11.00;99.90;;;;;;5069123;28;20450;-86
2022/11/05 03:04:55;;;;;;;2.60;2.40;;;11.00;99.90;;;;;;5059983;28;20437;-85
2022/11/05 03:07:38;;;;;;;2.43;2.10;;;11.00;99.90;;;;;;5077057;28;20443;-85
2022/11/05 03:10:30;;;;;;;5.80;2.47;;;11.00;99.90;;;;;;5055057;28;20471;-85
2022/11/05 03:13:09;;;;;;;2.37;2.17;;;11.00;99.90;;;;;;5054126;28;20809;-85
2022/11/05 03:15:48;;;;;;;1.93;1.83;;;11.00;99.90;;;;;;5055508;28;20441;-86
2022/11/05 03:18:22;;;;;;;3.20;2.40;;;11.00;99.90;;;;;;5075730;28;20511;-85
2022/11/05 03:20:56;;;;;;;4.93;2.37;;;10.90;99.90;;;;;;5054986;28;20483;-86
2022/11/05 03:23:27;;;;;;;2.57;2.27;;;11.00;99.90;;;;;;5053872;28;20448;-86
2022/11/05 03:25:59;;;;;;;4.13;2.33;;;11.00;99.90;;;;;;5053914;28;20463;-85
2022/11/05 03:28:28;;;;;;;2.40;2.03;;;10.90;99.90;;;;;;5053069;28;20952;-86
2022/11/05 03:30:56;;;;;;;2.57;2.20;;;10.90;99.90;;;;;;5053575;28;20448;-83
2022/11/05 03:33:28;;;;;;;3.50;2.20;;;10.90;99.90;;;;;;5052923;28;20452;-85
2022/11/05 03:36:00;;;;;;;3.20;2.57;;;11.00;99.90;;;;;;5053394;28;20448;-85
2022/11/05 03:38:30;;;;;;;2.83;2.40;;;11.00;99.90;;;;;;5051877;28;20480;-86
2022/11/05 03:41:01;;;;;;;2.80;2.50;;;11.00;99.90;;;;;;5053019;28;20445;-86
2022/11/05 03:43:32;;;;;;;2.93;2.53;;;11.00;99.90;;;;;;5053158;28;20437;-86
2022/11/05 03:46:03;;;;;;;3.50;3.00;;;11.00;99.90;;;;;;5052864;28;20448;-86
2022/11/05 03:48:37;;;;;;;3.50;2.33;;;11.00;99.90;;;;;;5052295;28;20441;-86
2022/11/05 03:51:11;;;;;;;2.87;2.57;;;11.00;99.90;;;;;;5052938;28;20449;-86
2022/11/05 03:53:42;;;;;;;4.17;2.80;;;11.00;99.90;;;;;;5070558;28;20448;-85
2022/11/05 03:56:17;;;;;;;2.63;2.30;;;11.00;99.90;;;;;;5075318;28;20428;-85
2022/11/05 03:58:45;;;;;;;2.60;2.30;;;11.00;99.90;;;;;;5075799;28;20417;-85
2022/11/05 04:01:12;;;;;;;4.03;2.83;;;11.00;99.90;;;;;;5076608;28;20420;-85
2022/11/05 04:03:40;;;;;;;2.20;2.00;;;11.00;99.90;;;;;;5060706;28;20441;-86
2022/11/05 04:14:28;;;;;;;5.03;2.50;;;11.00;99.90;;;;;;5053623;28;20542;-85
2022/11/05 04:17:07;;;;;;;3.63;2.13;;;11.00;99.90;;;;;;5052221;28;21023;-86
2022/11/05 04:25:05;;;;;;;3.13;2.70;;;10.80;99.90;;;;;;5051511;28;21007;-85
2022/11/05 04:27:32;;;;;;;5.67;2.87;;;10.80;99.90;;;;;;5051434;28;20451;-86
2022/11/05 04:32:43;;;;;;;5.60;3.90;;;10.70;99.90;;;;;;5051637;28;20428;-86
2022/11/05 04:35:11;;;;;;;3.30;3.00;;;10.70;99.90;;;;;;5050526;28;20815;-86
2022/11/05 04:37:37;;;;;;;4.30;3.27;;;10.60;99.90;;;;;;5051970;28;20483;-85
2022/11/05 04:40:05;;;;;;;3.30;3.00;;;10.60;99.90;;;;;;5052507;28;20472;-86
2022/11/05 04:42:32;;;;;;;4.80;3.90;;;10.60;99.90;;;;;;5053139;28;20449;-86
2022/11/05 04:44:58;;;;;;;3.60;3.30;;;10.50;99.90;;;;;;5052389;28;20444;-85
2022/11/05 04:47:25;;;;;;;4.60;3.70;;;10.60;99.90;;;;;;5050386;28;20436;-86
2022/11/05 04:49:52;;;;;;;5.13;3.40;;;10.50;99.90;;;;;;5052239;28;20472;-86
2022/11/05 04:52:20;;;;;;;4.80;4.40;;;10.60;99.90;;;;;;5054273;28;20464;-85
2022/11/05 04:54:47;;;;;;;4.90;4.40;;;10.50;99.90;;;;;;5051875;28;20460;-85
2022/11/05 04:57:13;;;;;;;5.30;4.80;;;10.50;99.90;;;;;;5050995;28;20483;-85
2022/11/05 04:59:40;;;;;;;5.13;4.63;;;10.50;99.90;;;;;;5051762;28;21011;-85
2022/11/05 05:02:07;;;;;;;6.57;4.80;;;10.50;99.90;;;;;;5052588;28;20448;-86
2022/11/05 05:04:34;;;;;;;6.10;5.50;;;10.50;99.90;;;;;;5053133;28;20445;-85
2022/11/05 05:07:00;;;;;;;5.90;5.30;;;10.60;99.90;;;;;;5074557;28;20451;-84
2022/11/05 05:09:28;;;;;;;6.73;5.43;;;10.50;99.90;;;;;;5054688;28;20457;-85
2022/11/05 05:11:55;;;;;;;7.47;5.80;;;10.50;99.90;;;;;;5052191;28;20444;-85
2022/11/05 05:14:22;;;;;;;6.20;5.70;;;10.50;99.90;;;;;;5069569;28;20432;-84
2022/11/05 05:16:48;;;;;;;7.23;6.53;;;10.50;99.90;;;;;;5065906;28;20441;-85
2022/11/05 05:19:15;;;;;;;7.30;6.60;;;10.50;99.90;;;;;;5051451;28;20468;-85
2022/11/05 05:21:41;;;;;;;8.60;7.80;;;10.50;99.90;;;;;;5052079;28;20822;-85
2022/11/05 05:24:09;;;;;;;9.33;8.37;;;10.40;99.90;;;;;;5051888;28;20440;-85
2022/11/05 05:26:39;;;;;;;8.50;7.60;;;10.40;99.90;;;;;;5051953;28;20610;-86
2022/11/05 05:29:06;;;;;;;9.30;8.40;;;10.40;99.90;;;;;;5059219;28;20465;-86
2022/11/05 05:31:34;;;;;;;9.87;8.60;;;10.40;99.90;;;;;;5052295;28;20444;-85
2022/11/05 05:34:01;;;;;;;9.23;8.40;;;10.40;99.90;;;;;;5053792;28;20440;-86
2022/11/05 05:36:28;;;;;;;10.40;9.30;;;10.40;99.90;;;;;;5063666;28;20448;-84
2022/11/05 05:38:54;;;;;;;10.67;9.67;;;10.40;99.90;;;;;;5069556;28;20508;-85
2022/11/05 05:41:21;;;;;;;10.40;9.30;;;10.50;99.90;;;;;;5041017;28;20444;-86
2022/11/05 05:43:50;;;;;;;10.33;9.30;;;10.50;99.90;;;;;;5038324;28;20950;-85
2022/11/05 05:46:18;;;;;;;9.60;8.53;;;10.50;99.90;;;;;;5041771;28;20454;-86
2022/11/05 05:48:49;;;;;;;10.97;9.90;;;10.50;99.90;;;;;;5043740;28;20544;-85
2022/11/05 05:51:16;;;;;;;12.97;11.10;;;10.50;99.90;;;;;;5045982;28;20450;-86
2022/11/05 05:53:43;;;;;;;13.47;12.07;;;10.50;99.90;;;;;;5035017;28;20965;-86
2022/11/05 05:56:13;;;;;;;12.10;10.80;;;10.50;99.90;;;;;;5034329;28;20961;-86
2022/11/05 05:58:40;;;;;;;14.17;10.63;;;10.50;99.90;;;;;;5025565;28;20572;-86
2022/11/05 06:01:11;;;;;;;13.93;12.50;;;10.50;99.90;;;;;;5026193;28;20446;-86
2022/11/05 06:03:38;;;;;;;13.70;12.30;;;10.50;99.90;;;;;;5030390;28;20442;-86
2022/11/05 06:06:09;;;;;;;13.33;12.03;;;10.50;99.90;;;;;;5030028;28;20446;-85
2022/11/05 06:08:37;;;;;;;14.60;12.77;;;10.50;99.90;;;;;;5022654;28;20441;-86
2022/11/05 06:11:06;;;;;;;15.50;14.00;;;10.50;99.90;;;;;;5024739;28;20438;-85
2022/11/05 06:13:33;;;;;;;15.33;13.70;;;10.50;99.90;;;;;;5023466;28;20450;-85
2022/11/05 06:16:02;;;;;;;18.47;15.50;;;10.50;99.90;;;;;;5072504;23;20499;-86
2022/11/05 06:18:30;;;;;;;19.73;16.30;;;10.40;99.90;;;;;;5072515;28;20461;-86
2022/11/05 06:21:01;;;;;;;16.67;14.87;;;10.40;99.90;;;;;;5067383;28;20448;-86
2022/11/05 06:23:29;;;;;;;17.60;14.60;;;10.40;99.90;;;;;;5055977;28;20445;-86
2022/11/05 06:25:59;;;;;;;17.30;15.50;;;10.40;99.90;;;;;;5041654;28;20548;-85
2022/11/05 06:28:26;;;;;;;19.37;16.00;;;10.50;99.90;;;;;;5042411;28;20441;-86
2022/11/05 06:30:53;;;;;;;18.63;16.47;;;10.40;99.90;;;;;;5048874;28;20434;-80
2022/11/05 06:33:19;;;;;;;24.40;18.70;;;10.50;99.90;;;;;;5040114;28;20444;-83
2022/11/05 06:35:48;;;;;;;18.47;16.57;;;10.50;99.90;;;;;;5044045;28;20470;-82
2022/11/05 06:38:14;;;;;;;19.50;17.37;;;10.50;99.90;;;;;;5050582;28;20494;-82
2022/11/05 06:40:41;;;;;;;21.87;17.80;;;10.40;99.90;;;;;;5053932;28;20946;-84
2022/11/05 06:43:08;;;;;;;21.93;16.93;;;10.40;99.90;;;;;;5044109;28;20824;-83
2022/11/05 06:45:35;;;;;;;26.17;18.80;;;10.40;99.90;;;;;;5046426;28;20465;-82
2022/11/05 06:48:01;;;;;;;20.97;17.67;;;10.30;99.90;;;;;;5046180;28;20950;-84
2022/11/05 06:50:29;;;;;;;21.73;18.33;;;10.30;99.90;;;;;;5051237;28;20441;-83
2022/11/05 06:52:58;;;;;;;22.83;19.83;;;10.30;99.90;;;;;;5050915;28;20445;-83
2022/11/05 06:55:26;;;;;;;24.80;19.50;;;10.30;99.90;;;;;;5042866;28;20481;-84
2022/11/05 06:57:54;;;;;;;25.20;20.43;;;10.30;99.90;;;;;;5044885;28;20483;-84
2022/11/05 07:00:21;;;;;;;25.60;21.70;;;10.30;99.90;;;;;;5058108;28;20445;-81
2022/11/05 07:02:48;;;;;;;23.47;19.03;;;10.30;99.90;;;;;;5070297;28;20484;-79
2022/11/05 07:05:16;;;;;;;22.47;20.07;;;10.40;99.90;;;;;;5074188;28;20695;-81
2022/11/05 07:07:44;;;;;;;23.10;19.63;;;10.40;99.90;;;;;;5062035;28;20960;-81
2022/11/05 07:10:14;;;;;;;23.97;17.90;;;10.50;99.90;;;;;;5043669;28;20441;-82
2022/11/05 07:12:41;;;;;;;22.80;19.50;;;10.50;99.90;;;;;;5046787;28;20839;-82
2022/11/05 07:15:09;;;;;;;22.13;19.60;;;10.60;99.90;;;;;;5045549;28;20465;-84
2022/11/05 07:17:36;;;;;;;20.83;18.53;;;10.70;99.90;;;;;;5051735;28;20481;-83
2022/11/05 07:20:03;;;;;;;20.50;18.30;;;10.70;99.90;;;;;;5059782;28;20501;-85
2022/11/05 07:22:30;;;;;;;20.57;18.37;;;10.70;99.90;;;;;;5047114;28;20817;-83
2022/11/05 07:24:57;;;;;;;24.83;20.00;;;10.70;99.90;;;;;;5049669;28;20464;-86
2022/11/05 07:27:25;;;;;;;23.10;20.40;;;10.70;99.90;;;;;;5046533;28;21190;-83
2022/11/05 07:29:51;;;;;;;24.47;19.33;;;10.80;99.90;;;;;;5049452;28;20452;-81
2022/11/05 07:32:18;;;;;;;23.23;19.33;;;10.80;99.90;;;;;;5058181;28;20444;-84
2022/11/05 07:34:45;;;;;;;23.03;19.03;;;10.80;99.90;;;;;;5048496;28;20985;-84
2022/11/05 07:37:12;;;;;;;22.90;19.37;;;10.80;99.90;;;;;;5037474;28;20454;-84
2022/11/05 07:39:38;;;;;;;25.30;19.03;;;10.90;99.90;;;;;;5041276;28;20481;-84
2022/11/05 07:42:05;;;;;;;23.57;19.60;;;11.00;99.90;;;;;;5047232;28;20464;-84
2022/11/05 07:44:33;;;;;;;25.53;20.40;;;11.00;99.90;;;;;;5045451;28;20467;-83
2022/11/05 07:47:00;;;;;;;21.50;17.40;;;11.00;99.90;;;;;;5053962;28;20949;-83
2022/11/05 07:49:27;;;;;;;21.30;19.00;;;11.00;99.90;;;;;;5047090;28;20445;-85
2022/11/05 07:51:53;;;;;;;22.07;17.73;;;11.00;99.90;;;;;;5051124;28;20442;-85
2022/11/05 07:54:25;;;;;;;21.20;17.20;;;11.00;99.90;;;;;;5055118;28;20443;-82
2022/11/05 07:56:52;;;;;;;20.40;18.27;;;11.00;99.90;;;;;;5047373;28;20456;-82
2022/11/05 07:59:18;;;;;;;20.50;17.07;;;11.00;99.90;;;;;;5044133;28;20484;-84
2022/11/05 08:01:46;;;;;;;21.10;17.17;;;10.90;99.90;;;;;;5048019;28;20445;-85
2022/11/05 08:04:13;;;;;;;22.60;17.90;;;10.90;99.90;;;;;;5037775;28;20833;-85
2022/11/05 08:06:40;;;;;;;25.53;18.60;;;11.00;99.90;;;;;;5045855;28;20460;-85
2022/11/05 08:09:06;;;;;;;23.87;18.80;;;11.00;99.90;;;;;;5039482;28;20438;-83
2022/11/05 08:11:34;;;;;;;22.17;18.43;;;11.10;99.90;;;;;;5043953;28;20452;-84
2022/11/05 08:14:01;;;;;;;24.13;19.47;;;11.20;99.90;;;;;;5038827;28;20448;-85
2022/11/05 08:16:28;;;;;;;22.13;17.63;;;11.20;99.90;;;;;;5038950;28;21138;-84
2022/11/05 08:18:56;;;;;;;20.40;17.87;;;11.20;99.90;;;;;;5043851;28;20488;-85
2022/11/05 08:21:22;;;;;;;19.20;17.20;;;11.20;99.90;;;;;;5045390;28;20453;-86
2022/11/05 08:23:49;;;;;;;25.30;15.53;;;11.20;99.90;;;;;;5045199;28;20938;-84
2022/11/05 08:26:16;;;;;;;18.13;16.03;;;11.20;99.90;;;;;;5042174;28;20469;-85
2022/11/05 08:28:42;;;;;;;15.60;12.60;;;11.10;99.90;;;;;;5042531;28;20442;-84
2022/11/05 08:31:09;;;;;;;11.67;10.47;;;11.00;99.90;;;;;;5039859;28;20930;-83
2022/11/05 08:33:36;;;;;;;12.43;11.03;;;11.00;99.90;;;;;;5042322;28;20444;-84
2022/11/05 08:36:04;;;;;;;10.17;9.07;;;10.90;99.90;;;;;;5043035;28;20468;-85
2022/11/05 08:38:31;;;;;;;10.77;8.90;;;10.70;99.90;;;;;;5040620;28;20480;-83
2022/11/05 08:40:59;;;;;;;11.30;9.67;;;10.60;99.90;;;;;;5045525;28;20438;-84
2022/11/05 08:43:26;;;;;;;10.60;8.73;;;10.60;99.90;;;;;;5046978;28;20472;-84
2022/11/05 08:45:53;;;;;;;10.70;8.27;;;10.50;99.90;;;;;;5044705;28;20548;-84
2022/11/05 08:48:20;;;;;;;8.80;7.37;;;10.50;99.90;;;;;;5043975;28;20442;-81
2022/11/05 08:50:48;;;;;;;8.33;7.20;;;10.40;99.90;;;;;;5046289;28;20449;-84
2022/11/05 08:53:16;;;;;;;9.37;7.70;;;10.40;99.90;;;;;;5058180;28;20637;-83
2022/11/05 08:55:45;;;;;;;8.70;7.80;;;10.40;99.90;;;;;;5057852;28;20464;-84
2022/11/05 08:58:15;;;;;;;8.30;6.67;;;10.40;99.90;;;;;;5057792;28;20511;-83
2022/11/05 09:00:46;;;;;;;6.90;6.20;;;10.40;99.90;;;;;;5059087;28;20499;-82
2022/11/05 09:03:13;;;;;;;7.73;6.90;;;10.40;99.90;;;;;;5063918;28;20459;-81
2022/11/05 09:05:41;;;;;;;7.00;6.30;;;10.40;99.90;;;;;;5058543;28;20472;-81
2022/11/05 09:08:10;;;;;;;9.10;6.73;;;10.40;99.90;;;;;;5061120;28;20452;-81
2022/11/05 09:10:39;;;;;;;7.00;5.43;;;10.40;99.90;;;;;;5055143;28;20445;-83
2022/11/05 09:13:06;;;;;;;8.87;6.33;;;10.50;99.90;;;;;;5038577;28;20499;-83
2022/11/05 09:15:34;;;;;;;7.17;5.67;;;10.50;99.90;;;;;;5037431;28;20556;-84
2022/11/05 09:18:01;;;;;;;6.27;5.13;;;10.50;99.90;;;;;;5038998;28;20450;-90
2022/11/05 09:20:28;;;;;;;6.30;5.67;;;10.50;99.90;;;;;;5044997;28;20441;-89
2022/11/05 09:22:55;;;;;;;6.97;5.50;;;10.50;99.90;;;;;;5052476;28;20449;-86
2022/11/05 09:25:22;;;;;;;6.33;5.57;;;10.50;99.90;;;;;;5045866;28;20848;-87
2022/11/05 09:27:50;;;;;;;7.23;5.63;;;10.50;99.90;;;;;;5052274;28;20489;-87
2022/11/05 09:30:17;;;;;;;7.87;7.07;;;10.50;99.90;;;;;;5044544;28;20456;-89
2022/11/05 09:32:44;;;;;;;7.67;6.87;;;10.50;99.90;;;;;;5038315;28;20445;-86
2022/11/05 09:35:10;;;;;;;8.60;6.90;;;10.50;99.90;;;;;;5038410;28;20469;-82
2022/11/05 09:37:38;;;;;;;8.20;7.23;;;10.50;99.90;;;;;;5037329;28;20445;-84
2022/11/05 09:40:06;;;;;;;8.00;7.17;;;10.50;99.90;;;;;;5039596;28;20485;-87
2022/11/05 09:42:39;;;;;;;9.67;7.47;;;10.50;99.90;;;;;;5043275;28;20508;-89
2022/11/05 09:45:14;;;;;;;8.90;7.53;;;10.60;99.90;;;;;;5056122;28;20464;-89
2022/11/05 09:47:47;;;;;;;8.83;7.70;;;10.60;99.90;;;;;;5040660;28;20946;-90
2022/11/05 09:50:18;;;;;;;8.57;7.67;;;10.60;99.90;;;;;;5044367;28;20452;-91
2022/11/05 09:52:45;;;;;;;10.63;8.70;;;10.70;99.90;;;;;;5041468;28;20515;-89
2022/11/05 09:55:21;;;;;;;10.03;8.90;;;10.70;99.90;;;;;;5040410;28;20466;-86
2022/11/05 09:57:52;;;;;;;11.20;9.03;;;10.70;99.90;;;;;;5047269;28;20451;-81
2022/11/05 10:00:20;;;;;;;13.47;10.83;;;10.80;99.90;;;;;;5041457;28;20891;-84
2022/11/05 10:02:50;;;;;;;15.47;10.87;;;10.80;99.90;;;;;;5039948;28;20460;-81
2022/11/05 10:05:18;;;;;;;11.80;10.17;;;10.80;99.90;;;;;;5039441;28;21213;-82
2022/11/05 10:07:49;;;;;;;12.90;11.63;;;10.90;99.90;;;;;;5039157;28;20449;-82
2022/11/05 10:10:29;;;;;;;14.23;10.30;;;10.90;99.90;;;;;;5043474;28;20446;-81
2022/11/05 10:12:59;;;;;;;13.53;11.30;;;11.00;99.90;;;;;;5047086;28;20451;-80
2022/11/05 10:15:30;;;;;;;12.73;11.33;;;11.00;99.90;;;;;;5037424;28;20469;-82
2022/11/05 10:18:02;;;;;;;12.23;10.93;;;11.10;99.90;;;;;;5044985;28;20781;-81
2022/11/05 10:20:33;;;;;;;12.97;11.67;;;11.10;99.90;;;;;;5055504;28;20437;-80
2022/11/05 10:23:08;;;;;;;16.70;11.80;;;11.10;99.90;;;;;;5048692;28;20441;-82
2022/11/05 10:25:39;;;;;;;14.47;12.63;;;11.20;99.90;;;;;;5038173;28;20465;-82
2022/11/05 10:28:07;;;;;;;14.03;12.63;;;11.30;99.90;;;;;;5037858;28;20946;-87
2022/11/05 10:30:35;;;;;;;12.10;10.80;;;11.40;99.90;;;;;;5036435;28;20453;-82
2022/11/05 10:33:06;;;;;;;16.10;12.80;;;11.40;99.90;;;;;;5036148;28;20445;-82
2022/11/05 10:35:39;;;;;;;13.33;11.93;;;11.60;99.90;;;;;;5037174;28;20469;-83
2022/11/05 10:38:06;;;;;;;19.50;13.47;;;11.70;99.90;;;;;;5044599;28;20442;-81
2022/11/05 10:40:43;;;;;;;18.43;12.00;;;11.60;99.90;;;;;;5040083;28;20437;-81
2022/11/05 10:43:13;;;;;;;13.67;10.93;;;11.70;99.90;;;;;;5037431;28;20445;-81
2022/11/05 10:45:50;;;;;;;15.30;11.80;;;11.80;99.90;;;;;;5038454;28;20467;-82
2022/11/05 10:48:34;;;;;;;15.97;11.13;;;11.80;99.90;;;;;;5036055;28;20441;-81
2022/11/05 10:51:01;;;;;;;13.83;10.87;;;11.80;99.90;;;;;;5037363;28;20457;-82
2022/11/05 10:53:33;;;;;;;13.23;10.40;;;12.00;99.90;;;;;;5046038;28;20433;-78
2022/11/05 10:56:00;;;;;;;15.90;11.23;;;12.20;99.90;;;;;;5041242;28;20469;-81
2022/11/05 10:58:28;;;;;;;11.73;10.23;;;12.50;99.90;;;;;;5036047;28;20449;-81
2022/11/05 11:01:05;;;;;;;13.70;9.13;;;12.90;99.90;;;;;;5036892;28;20492;-81
2022/11/05 11:03:37;;;;;;;10.27;9.23;;;13.00;99.90;;;;;;5038407;28;20907;-82
2022/11/05 11:06:06;;;;;;;13.27;11.10;;;13.00;99.90;;;;;;5036014;28;20469;-82
2022/11/05 11:08:36;;;;;;;11.13;9.83;;;13.00;99.90;;;;;;5035942;28;20452;-82
2022/11/05 11:11:05;;;;;;;12.00;9.87;;;12.90;99.90;;;;;;5035722;28;20442;-82
2022/11/05 11:13:49;;;;;;;11.67;9.67;;;12.90;99.90;;;;;;5036955;28;20452;-86
2022/11/05 11:16:22;;;;;;;14.30;10.93;;;12.90;99.90;;;;;;5039626;28;20481;-82
2022/11/05 11:18:53;;;;;;;12.23;9.53;;;12.80;99.90;;;;;;5035801;28;20480;-82
2022/11/05 11:21:25;;;;;;;11.70;8.70;;;12.80;99.90;;;;;;5038227;28;20446;-82
2022/11/05 11:23:55;;;;;;;16.90;8.70;;;13.00;99.90;;;;;;5040236;28;20489;-81
2022/11/05 11:26:24;;;;;;;12.07;8.57;;;13.20;99.90;;;;;;5043963;28;20473;-82
2022/11/05 11:28:56;;;;;;;12.70;10.20;;;13.20;99.90;;;;;;5045962;28;20517;-80
2022/11/05 11:31:27;;;;;;;10.90;9.10;;;13.00;99.90;;;;;;5049806;28;20450;-82
2022/11/05 11:33:59;;;;;;;9.67;8.73;;;12.80;99.90;;;;;;5039921;28;20449;-90
2022/11/05 11:36:33;;;;;;;10.30;9.27;;;12.70;99.90;;;;;;5036440;28;20484;-82
2022/11/05 11:39:01;;;;;;;10.83;8.93;;;12.80;99.90;;;;;;5040167;28;20928;-92
2022/11/05 11:41:32;;;;;;;13.00;9.80;;;13.10;99.90;;;;;;5038153;28;20453;-92
2022/11/05 11:44:03;;;;;;;9.90;8.37;;;13.50;99.90;;;;;;5038884;28;20454;-83
2022/11/05 11:46:34;;;;;;;9.70;8.70;;;13.90;99.90;;;;;;5042467;28;20819;-84
2022/11/05 11:49:02;;;;;;;10.17;8.80;;;14.30;99.90;;;;;;5043369;28;20438;-83
2022/11/05 11:51:35;;;;;;;10.73;9.20;;;14.30;99.90;;;;;;5046775;28;20445;-85
2022/11/05 11:54:03;;;;;;;11.00;9.90;;;14.50;99.90;;;;;;5044492;28;20800;-84
2022/11/05 11:56:41;;;;;;;10.40;9.00;;;14.40;99.90;;;;;;5044848;28;20445;-84
2022/11/05 11:59:20;;;;;;;12.17;8.80;;;14.60;99.90;;;;;;5045274;28;20481;-90
2022/11/05 12:02:29;;;;;;;10.27;9.27;;;14.70;99.90;;;;;;5044850;28;20472;-93
2022/11/05 12:05:18;;;;;;;14.63;9.57;;;14.60;99.90;;;;;;5050226;28;20569;-83
2022/11/05 12:07:51;;;;;;;11.23;8.33;;;14.40;99.90;;;;;;5030385;28;20441;-83
2022/11/05 12:10:41;;;;;;;10.10;7.73;;;14.20;99.90;;;;;;5036234;28;20441;-82
2022/11/05 12:13:38;;;;;;;9.80;7.50;;;14.10;99.90;;;;;;5035164;28;20441;-81
2022/11/05 12:16:12;;;;;;;9.13;8.20;;;13.90;99.90;;;;;;5011014;28;20480;-83
2022/11/05 12:18:46;;;;;;;8.23;7.10;;;13.90;99.90;;;;;;5039055;28;20442;-83
2022/11/05 12:21:18;;;;;;;7.90;7.10;;;13.70;99.90;;;;;;5044587;28;20445;-84
2022/11/05 12:24:10;;;;;;;8.07;7.27;;;13.90;99.90;;;;;;5049257;28;20444;-83
2022/11/05 12:26:47;;;;;;;7.77;6.93;;;14.10;99.90;;;;;;5028056;28;20501;-83
2022/11/05 12:29:35;;;;;;;7.70;6.67;;;14.30;99.90;;;;;;5025150;28;20438;-84
2022/11/05 12:32:22;;;;;;;8.30;6.70;;;14.50;99.90;;;;;;5024562;28;20434;-83
2022/11/05 12:34:59;;;;;;;10.53;6.70;;;14.60;99.90;;;;;;5036474;28;20465;-82
2022/11/05 12:37:33;;;;;;;6.97;6.27;;;14.80;99.90;;;;;;5045793;28;20450;-83
2022/11/05 12:40:24;;;;;;;8.10;7.30;;;15.00;99.90;;;;;;5046107;28;20498;-82
2022/11/05 12:43:03;;;;;;;8.03;6.90;;;15.10;99.90;;;;;;5035747;28;20443;-82
2022/11/05 12:45:41;;;;;;;7.87;7.13;;;15.50;99.90;;;;;;5030919;28;20464;-81
2022/11/05 12:48:21;;;;;;;6.27;5.63;;;15.50;99.90;;;;;;5034371;28;20450;-81
2022/11/05 12:50:54;;;;;;;6.27;5.63;;;15.60;99.90;;;;;;5029198;28;20433;-81
2022/11/05 12:53:37;;;;;;;7.40;6.63;;;15.60;99.90;;;;;;5028736;28;20443;-82
2022/11/05 12:56:18;;;;;;;12.17;6.60;;;15.30;99.90;;;;;;5030035;28;20461;-83
2022/11/05 12:58:51;;;;;;;7.47;6.60;;;15.10;99.90;;;;;;5037818;28;20437;-84
2022/11/05 13:01:26;;;;;;;12.70;9.90;;;15.00;99.90;;;;;;5040275;28;20440;-82
2022/11/05 13:03:57;;;;;;;13.03;9.53;;;15.00;99.90;;;;;;5038397;28;20441;-82
2022/11/05 13:06:30;;;;;;;11.53;8.80;;;14.80;99.90;;;;;;5040417;28;20462;-84
2022/11/05 13:09:19;;;;;;;14.60;10.50;;;14.70;99.90;;;;;;5041155;28;20968;-92
2022/11/05 13:22:17;;;;;;;10.40;8.10;;;14.00;99.90;;;;;;5073163;28;20471;-85
2022/11/05 13:24:49;;;;;;;12.30;7.73;;;13.90;99.90;;;;;;5058961;28;20464;-85
2022/11/05 13:27:42;;;;;;;11.90;7.63;;;13.80;99.90;;;;;;5053686;28;20438;-83
2022/11/05 13:30:15;;;;;;;8.90;8.03;;;13.80;99.90;;;;;;5057804;28;20582;-85
2022/11/05 13:32:45;;;;;;;8.97;6.83;;;13.80;99.90;;;;;;5062336;28;20465;-83
2022/11/05 13:35:20;;;;;;;10.23;7.37;;;13.80;99.90;;;;;;5062472;28;20516;-86
2022/11/05 13:40:48;;;;;;;10.70;7.67;;;13.70;99.90;;;;;;5076830;28;20477;-84
2022/11/05 13:43:41;;;;;;;13.90;9.20;;;13.70;99.90;;;;;;5062032;28;20457;-93
2022/11/05 13:46:34;;;;;;;11.47;6.70;;;13.70;99.90;;;;;;5074695;28;20456;-92
2022/11/05 13:49:21;;;;;;;8.40;7.50;;;13.70;99.90;;;;;;5079675;28;20432;-93